sensor_id;sensor_type;location;lat;lon;timestamp;P1;durP1;ratioP1;P2;durP2;ratioP2
75766;SDS011;64378;55.596;13.014;2023-01-31T00:00:29;11.97;;;1.53;;
75766;SDS011;64378;55.596;13.014;2023-01-31T00:02:54;9.47;;;1.50;;
75766;SDS011;64378;55.596;13.014;2023-01-31T00:05:19;11.60;;;1.63;;
75766;SDS011;64378;55.596;13.014;2023-01-31T00:07:45;11.40;;;1.73;;
75766;SDS011;64378;55.596;13.014;2023-01-31T00:10:11;10.23;;;1.70;;
75766;SDS011;64378;55.596;13.014;2023-01-31T00:12:36;9.73;;;1.53;;
75766;SDS011;64378;55.596;13.014;2023-01-31T00:15:02;9.03;;;1.40;;
75766;SDS011;64378;55.596;13.014;2023-01-31T00:17:28;9.98;;;1.50;;
75766;SDS011;64378;55.596;13.014;2023-01-31T00:19:53;13.25;;;1.50;;
75766;SDS011;64378;55.596;13.014;2023-01-31T00:22:18;9.67;;;1.50;;
75766;SDS011;64378;55.596;13.014;2023-01-31T00:24:44;7.80;;;1.63;;
75766;SDS011;64378;55.596;13.014;2023-01-31T00:27:09;7.00;;;1.30;;
75766;SDS011;64378;55.596;13.014;2023-01-31T00:29:35;9.17;;;1.67;;
75766;SDS011;64378;55.596;13.014;2023-01-31T00:32:00;9.20;;;1.57;;
75766;SDS011;64378;55.596;13.014;2023-01-31T00:34:25;7.10;;;1.20;;
75766;SDS011;64378;55.596;13.014;2023-01-31T00:36:51;8.98;;;1.33;;
75766;SDS011;64378;55.596;13.014;2023-01-31T00:39:16;8.40;;;1.30;;
75766;SDS011;64378;55.596;13.014;2023-01-31T00:41:42;9.10;;;1.40;;
75766;SDS011;64378;55.596;13.014;2023-01-31T00:44:07;8.73;;;1.40;;
75766;SDS011;64378;55.596;13.014;2023-01-31T00:46:32;9.20;;;1.40;;
75766;SDS011;64378;55.596;13.014;2023-01-31T00:48:58;10.23;;;1.67;;
75766;SDS011;64378;55.596;13.014;2023-01-31T00:51:24;9.67;;;1.63;;
75766;SDS011;64378;55.596;13.014;2023-01-31T00:53:50;9.50;;;1.50;;
75766;SDS011;64378;55.596;13.014;2023-01-31T00:56:20;9.83;;;1.50;;
75766;SDS011;64378;55.596;13.014;2023-01-31T00:58:47;9.23;;;1.58;;
75766;SDS011;64378;55.596;13.014;2023-01-31T01:01:18;8.35;;;1.30;;
75766;SDS011;64378;55.596;13.014;2023-01-31T01:03:46;9.05;;;1.40;;
75766;SDS011;64378;55.596;13.014;2023-01-31T01:06:12;8.00;;;1.35;;
75766;SDS011;64378;55.596;13.014;2023-01-31T01:08:39;9.20;;;1.48;;
75766;SDS011;64378;55.596;13.014;2023-01-31T01:13:32;6.90;;;1.20;;
75766;SDS011;64378;55.596;13.014;2023-01-31T01:15:57;8.20;;;1.30;;
75766;SDS011;64378;55.596;13.014;2023-01-31T01:18:32;8.77;;;1.83;;
75766;SDS011;64378;55.596;13.014;2023-01-31T01:21:08;10.10;;;1.35;;
75766;SDS011;64378;55.596;13.014;2023-01-31T01:23:36;7.30;;;1.23;;
75766;SDS011;64378;55.596;13.014;2023-01-31T01:26:02;9.57;;;1.20;;
75766;SDS011;64378;55.596;13.014;2023-01-31T01:28:27;8.17;;;1.50;;
75766;SDS011;64378;55.596;13.014;2023-01-31T01:30:53;6.78;;;1.17;;
75766;SDS011;64378;55.596;13.014;2023-01-31T01:33:18;6.63;;;1.20;;
75766;SDS011;64378;55.596;13.014;2023-01-31T01:35:44;9.23;;;1.53;;
75766;SDS011;64378;55.596;13.014;2023-01-31T01:38:09;7.80;;;1.20;;
75766;SDS011;64378;55.596;13.014;2023-01-31T01:40:36;6.80;;;1.10;;
75766;SDS011;64378;55.596;13.014;2023-01-31T01:43:02;7.47;;;1.20;;
75766;SDS011;64378;55.596;13.014;2023-01-31T01:45:28;9.55;;;1.20;;
75766;SDS011;64378;55.596;13.014;2023-01-31T01:47:55;7.97;;;1.10;;
75766;SDS011;64378;55.596;13.014;2023-01-31T01:50:29;8.15;;;1.20;;
75766;SDS011;64378;55.596;13.014;2023-01-31T01:58:18;10.13;;;1.27;;
75766;SDS011;64378;55.596;13.014;2023-01-31T02:01:06;9.77;;;1.52;;
75766;SDS011;64378;55.596;13.014;2023-01-31T02:03:33;7.57;;;1.30;;
75766;SDS011;64378;55.596;13.014;2023-01-31T02:06:00;7.60;;;1.00;;
75766;SDS011;64378;55.596;13.014;2023-01-31T02:08:29;7.13;;;1.15;;
75766;SDS011;64378;55.596;13.014;2023-01-31T02:10:59;7.78;;;1.08;;
75766;SDS011;64378;55.596;13.014;2023-01-31T02:13:32;7.05;;;0.90;;
75766;SDS011;64378;55.596;13.014;2023-01-31T02:15:59;9.43;;;1.23;;
75766;SDS011;64378;55.596;13.014;2023-01-31T02:18:24;8.35;;;1.38;;
75766;SDS011;64378;55.596;13.014;2023-01-31T02:21:00;6.87;;;1.20;;
75766;SDS011;64378;55.596;13.014;2023-01-31T02:24:38;8.83;;;1.20;;
75766;SDS011;64378;55.596;13.014;2023-01-31T02:37:45;7.70;;;1.05;;
75766;SDS011;64378;55.596;13.014;2023-01-31T02:40:19;7.45;;;1.23;;
75766;SDS011;64378;55.596;13.014;2023-01-31T02:50:55;7.63;;;1.20;;
75766;SDS011;64378;55.596;13.014;2023-01-31T02:53:32;7.33;;;0.97;;
75766;SDS011;64378;55.596;13.014;2023-01-31T02:56:08;6.57;;;0.90;;
75766;SDS011;64378;55.596;13.014;2023-01-31T02:59:05;7.30;;;1.10;;
75766;SDS011;64378;55.596;13.014;2023-01-31T03:01:36;7.43;;;1.10;;
75766;SDS011;64378;55.596;13.014;2023-01-31T03:04:04;6.35;;;0.90;;
75766;SDS011;64378;55.596;13.014;2023-01-31T03:09:02;6.35;;;1.05;;
75766;SDS011;64378;55.596;13.014;2023-01-31T03:11:47;6.15;;;1.15;;
75766;SDS011;64378;55.596;13.014;2023-01-31T03:17:00;6.30;;;1.10;;
75766;SDS011;64378;55.596;13.014;2023-01-31T03:22:59;7.60;;;1.23;;
75766;SDS011;64378;55.596;13.014;2023-01-31T03:25:30;6.60;;;1.10;;
75766;SDS011;64378;55.596;13.014;2023-01-31T03:27:59;6.60;;;1.00;;
75766;SDS011;64378;55.596;13.014;2023-01-31T03:33:05;6.80;;;0.98;;
75766;SDS011;64378;55.596;13.014;2023-01-31T03:35:36;8.05;;;1.15;;
75766;SDS011;64378;55.596;13.014;2023-01-31T03:38:09;7.13;;;1.20;;
75766;SDS011;64378;55.596;13.014;2023-01-31T03:40:40;11.75;;;1.20;;
75766;SDS011;64378;55.596;13.014;2023-01-31T03:43:13;8.63;;;1.30;;
75766;SDS011;64378;55.596;13.014;2023-01-31T03:45:40;7.53;;;1.40;;
75766;SDS011;64378;55.596;13.014;2023-01-31T03:48:10;8.90;;;1.50;;
75766;SDS011;64378;55.596;13.014;2023-01-31T03:50:43;6.83;;;1.03;;
75766;SDS011;64378;55.596;13.014;2023-01-31T03:53:30;7.10;;;1.10;;
75766;SDS011;64378;55.596;13.014;2023-01-31T03:56:12;6.40;;;1.00;;
75766;SDS011;64378;55.596;13.014;2023-01-31T03:58:43;7.75;;;1.00;;
75766;SDS011;64378;55.596;13.014;2023-01-31T04:01:13;7.53;;;0.90;;
75766;SDS011;64378;55.596;13.014;2023-01-31T04:03:41;6.88;;;0.95;;
75766;SDS011;64378;55.596;13.014;2023-01-31T04:06:28;7.65;;;1.25;;
75766;SDS011;64378;55.596;13.014;2023-01-31T04:08:53;7.93;;;1.23;;
75766;SDS011;64378;55.596;13.014;2023-01-31T04:11:19;6.38;;;1.00;;
75766;SDS011;64378;55.596;13.014;2023-01-31T04:13:48;6.60;;;1.02;;
75766;SDS011;64378;55.596;13.014;2023-01-31T04:16:14;10.63;;;1.30;;
75766;SDS011;64378;55.596;13.014;2023-01-31T04:18:39;6.47;;;1.20;;
75766;SDS011;64378;55.596;13.014;2023-01-31T04:21:05;6.27;;;1.17;;
75766;SDS011;64378;55.596;13.014;2023-01-31T04:23:30;7.20;;;1.03;;
75766;SDS011;64378;55.596;13.014;2023-01-31T04:25:56;7.40;;;1.47;;
75766;SDS011;64378;55.596;13.014;2023-01-31T04:28:21;8.23;;;1.30;;
75766;SDS011;64378;55.596;13.014;2023-01-31T04:30:53;7.37;;;1.23;;
75766;SDS011;64378;55.596;13.014;2023-01-31T04:33:19;6.18;;;1.02;;
75766;SDS011;64378;55.596;13.014;2023-01-31T04:35:45;7.65;;;1.20;;
75766;SDS011;64378;55.596;13.014;2023-01-31T04:38:10;6.80;;;1.27;;
75766;SDS011;64378;55.596;13.014;2023-01-31T04:40:35;5.73;;;1.00;;
75766;SDS011;64378;55.596;13.014;2023-01-31T04:43:01;7.50;;;1.20;;
75766;SDS011;64378;55.596;13.014;2023-01-31T04:45:26;8.30;;;1.23;;
75766;SDS011;64378;55.596;13.014;2023-01-31T04:47:52;7.90;;;1.40;;
75766;SDS011;64378;55.596;13.014;2023-01-31T04:50:17;7.47;;;1.27;;
75766;SDS011;64378;55.596;13.014;2023-01-31T04:52:42;8.13;;;1.00;;
75766;SDS011;64378;55.596;13.014;2023-01-31T04:55:08;7.33;;;1.30;;
75766;SDS011;64378;55.596;13.014;2023-01-31T04:57:33;7.32;;;1.13;;
75766;SDS011;64378;55.596;13.014;2023-01-31T04:59:59;7.53;;;1.17;;
75766;SDS011;64378;55.596;13.014;2023-01-31T05:02:24;7.40;;;1.10;;
75766;SDS011;64378;55.596;13.014;2023-01-31T05:04:50;7.20;;;1.30;;
75766;SDS011;64378;55.596;13.014;2023-01-31T05:07:15;7.23;;;1.33;;
75766;SDS011;64378;55.596;13.014;2023-01-31T05:09:40;6.70;;;1.10;;
75766;SDS011;64378;55.596;13.014;2023-01-31T05:12:07;7.93;;;1.10;;
75766;SDS011;64378;55.596;13.014;2023-01-31T05:14:33;7.57;;;1.20;;
75766;SDS011;64378;55.596;13.014;2023-01-31T05:16:58;8.60;;;1.30;;
75766;SDS011;64378;55.596;13.014;2023-01-31T05:19:24;6.67;;;1.10;;
75766;SDS011;64378;55.596;13.014;2023-01-31T05:21:49;8.50;;;1.30;;
75766;SDS011;64378;55.596;13.014;2023-01-31T05:24:25;8.23;;;1.20;;
75766;SDS011;64378;55.596;13.014;2023-01-31T05:26:56;9.18;;;1.30;;
75766;SDS011;64378;55.596;13.014;2023-01-31T05:29:26;7.53;;;1.10;;
75766;SDS011;64378;55.596;13.014;2023-01-31T05:31:53;8.13;;;1.30;;
75766;SDS011;64378;55.596;13.014;2023-01-31T05:34:20;7.70;;;1.20;;
75766;SDS011;64378;55.596;13.014;2023-01-31T05:36:48;6.70;;;0.90;;
75766;SDS011;64378;55.596;13.014;2023-01-31T05:39:13;7.43;;;1.23;;
75766;SDS011;64378;55.596;13.014;2023-01-31T05:41:38;6.67;;;1.10;;
75766;SDS011;64378;55.596;13.014;2023-01-31T05:44:04;8.67;;;1.20;;
75766;SDS011;64378;55.596;13.014;2023-01-31T05:46:30;7.88;;;1.17;;
75766;SDS011;64378;55.596;13.014;2023-01-31T05:48:55;6.90;;;1.03;;
75766;SDS011;64378;55.596;13.014;2023-01-31T05:51:20;8.37;;;1.30;;
75766;SDS011;64378;55.596;13.014;2023-01-31T05:53:46;6.47;;;0.83;;
75766;SDS011;64378;55.596;13.014;2023-01-31T05:56:12;8.15;;;1.00;;
75766;SDS011;64378;55.596;13.014;2023-01-31T05:58:38;6.03;;;1.23;;
75766;SDS011;64378;55.596;13.014;2023-01-31T06:01:03;7.32;;;1.10;;
75766;SDS011;64378;55.596;13.014;2023-01-31T06:03:29;8.02;;;1.17;;
75766;SDS011;64378;55.596;13.014;2023-01-31T06:05:54;6.60;;;1.07;;
75766;SDS011;64378;55.596;13.014;2023-01-31T06:08:19;7.10;;;1.27;;
75766;SDS011;64378;55.596;13.014;2023-01-31T06:10:45;7.63;;;1.10;;
75766;SDS011;64378;55.596;13.014;2023-01-31T06:13:10;7.90;;;1.10;;
75766;SDS011;64378;55.596;13.014;2023-01-31T06:15:35;7.40;;;1.23;;
75766;SDS011;64378;55.596;13.014;2023-01-31T06:18:02;6.10;;;0.98;;
75766;SDS011;64378;55.596;13.014;2023-01-31T06:20:27;8.73;;;1.10;;
75766;SDS011;64378;55.596;13.014;2023-01-31T06:22:53;8.50;;;1.10;;
75766;SDS011;64378;55.596;13.014;2023-01-31T06:25:19;7.03;;;1.10;;
75766;SDS011;64378;55.596;13.014;2023-01-31T06:27:44;5.97;;;1.03;;
75766;SDS011;64378;55.596;13.014;2023-01-31T06:30:10;8.52;;;1.10;;
75766;SDS011;64378;55.596;13.014;2023-01-31T06:32:36;8.30;;;1.13;;
75766;SDS011;64378;55.596;13.014;2023-01-31T06:35:04;6.70;;;1.23;;
75766;SDS011;64378;55.596;13.014;2023-01-31T06:37:30;6.32;;;0.98;;
75766;SDS011;64378;55.596;13.014;2023-01-31T06:39:55;6.43;;;1.13;;
75766;SDS011;64378;55.596;13.014;2023-01-31T06:42:21;6.73;;;1.00;;
75766;SDS011;64378;55.596;13.014;2023-01-31T06:44:46;9.63;;;1.57;;
75766;SDS011;64378;55.596;13.014;2023-01-31T06:47:12;9.43;;;1.40;;
75766;SDS011;64378;55.596;13.014;2023-01-31T06:49:38;7.00;;;1.27;;
75766;SDS011;64378;55.596;13.014;2023-01-31T06:52:04;6.75;;;1.20;;
75766;SDS011;64378;55.596;13.014;2023-01-31T06:54:29;7.37;;;1.07;;
75766;SDS011;64378;55.596;13.014;2023-01-31T06:56:55;8.03;;;1.53;;
75766;SDS011;64378;55.596;13.014;2023-01-31T06:59:20;7.70;;;1.10;;
75766;SDS011;64378;55.596;13.014;2023-01-31T07:01:46;7.45;;;1.30;;
75766;SDS011;64378;55.596;13.014;2023-01-31T07:04:11;7.30;;;1.13;;
75766;SDS011;64378;55.596;13.014;2023-01-31T07:06:37;9.27;;;1.43;;
75766;SDS011;64378;55.596;13.014;2023-01-31T07:09:02;6.63;;;1.20;;
75766;SDS011;64378;55.596;13.014;2023-01-31T07:11:28;8.47;;;1.20;;
75766;SDS011;64378;55.596;13.014;2023-01-31T07:13:53;6.85;;;1.10;;
75766;SDS011;64378;55.596;13.014;2023-01-31T07:16:19;11.37;;;1.60;;
75766;SDS011;64378;55.596;13.014;2023-01-31T07:18:46;8.45;;;1.38;;
75766;SDS011;64378;55.596;13.014;2023-01-31T07:21:12;10.63;;;1.30;;
75766;SDS011;64378;55.596;13.014;2023-01-31T07:23:37;8.60;;;1.30;;
75766;SDS011;64378;55.596;13.014;2023-01-31T07:26:03;9.37;;;1.20;;
75766;SDS011;64378;55.596;13.014;2023-01-31T07:28:29;9.63;;;1.30;;
75766;SDS011;64378;55.596;13.014;2023-01-31T07:30:54;8.57;;;1.30;;
75766;SDS011;64378;55.596;13.014;2023-01-31T07:33:20;9.38;;;1.30;;
75766;SDS011;64378;55.596;13.014;2023-01-31T07:35:45;7.65;;;1.25;;
75766;SDS011;64378;55.596;13.014;2023-01-31T07:38:10;9.93;;;1.00;;
75766;SDS011;64378;55.596;13.014;2023-01-31T07:40:36;11.20;;;1.53;;
75766;SDS011;64378;55.596;13.014;2023-01-31T07:43:01;11.53;;;1.40;;
75766;SDS011;64378;55.596;13.014;2023-01-31T07:45:27;8.87;;;1.10;;
75766;SDS011;64378;55.596;13.014;2023-01-31T07:47:52;8.80;;;1.10;;
75766;SDS011;64378;55.596;13.014;2023-01-31T07:50:21;9.50;;;1.40;;
75766;SDS011;64378;55.596;13.014;2023-01-31T07:52:47;12.57;;;1.40;;
75766;SDS011;64378;55.596;13.014;2023-01-31T07:55:14;9.20;;;1.40;;
75766;SDS011;64378;55.596;13.014;2023-01-31T07:57:39;10.50;;;1.60;;
75766;SDS011;64378;55.596;13.014;2023-01-31T08:00:04;10.30;;;1.80;;
75766;SDS011;64378;55.596;13.014;2023-01-31T08:02:50;11.67;;;1.73;;
75766;SDS011;64378;55.596;13.014;2023-01-31T08:05:34;9.45;;;1.85;;
75766;SDS011;64378;55.596;13.014;2023-01-31T08:07:59;9.17;;;1.70;;
75766;SDS011;64378;55.596;13.014;2023-01-31T08:10:34;9.85;;;1.80;;
75766;SDS011;64378;55.596;13.014;2023-01-31T08:13:00;8.90;;;1.80;;
75766;SDS011;64378;55.596;13.014;2023-01-31T08:15:25;10.77;;;1.87;;
75766;SDS011;64378;55.596;13.014;2023-01-31T08:17:50;9.90;;;1.73;;
75766;SDS011;64378;55.596;13.014;2023-01-31T08:20:16;8.40;;;1.73;;
75766;SDS011;64378;55.596;13.014;2023-01-31T08:22:42;9.90;;;1.90;;
75766;SDS011;64378;55.596;13.014;2023-01-31T08:25:08;10.17;;;1.70;;
75766;SDS011;64378;55.596;13.014;2023-01-31T08:27:33;8.10;;;1.50;;
75766;SDS011;64378;55.596;13.014;2023-01-31T08:29:59;9.10;;;1.90;;
75766;SDS011;64378;55.596;13.014;2023-01-31T08:32:24;9.45;;;1.83;;
75766;SDS011;64378;55.596;13.014;2023-01-31T08:34:50;7.30;;;1.60;;
75766;SDS011;64378;55.596;13.014;2023-01-31T08:37:15;8.57;;;1.73;;
75766;SDS011;64378;55.596;13.014;2023-01-31T08:39:40;8.00;;;1.40;;
75766;SDS011;64378;55.596;13.014;2023-01-31T08:42:08;10.30;;;1.83;;
75766;SDS011;64378;55.596;13.014;2023-01-31T08:44:33;9.27;;;1.50;;
75766;SDS011;64378;55.596;13.014;2023-01-31T08:47:01;8.73;;;1.70;;
75766;SDS011;64378;55.596;13.014;2023-01-31T08:49:27;7.63;;;1.43;;
75766;SDS011;64378;55.596;13.014;2023-01-31T08:51:52;8.13;;;1.50;;
75766;SDS011;64378;55.596;13.014;2023-01-31T08:54:18;8.77;;;1.60;;
75766;SDS011;64378;55.596;13.014;2023-01-31T08:56:43;7.30;;;1.40;;
75766;SDS011;64378;55.596;13.014;2023-01-31T08:59:09;9.83;;;1.87;;
75766;SDS011;64378;55.596;13.014;2023-01-31T09:01:35;8.63;;;1.60;;
75766;SDS011;64378;55.596;13.014;2023-01-31T09:04:01;6.73;;;1.20;;
75766;SDS011;64378;55.596;13.014;2023-01-31T09:06:26;9.90;;;1.70;;
75766;SDS011;64378;55.596;13.014;2023-01-31T09:08:53;9.73;;;1.40;;
75766;SDS011;64378;55.596;13.014;2023-01-31T09:11:20;6.72;;;1.40;;
75766;SDS011;64378;55.596;13.014;2023-01-31T09:13:46;11.57;;;1.65;;
75766;SDS011;64378;55.596;13.014;2023-01-31T09:16:15;7.65;;;1.50;;
75766;SDS011;64378;55.596;13.014;2023-01-31T09:18:40;8.00;;;1.38;;
75766;SDS011;64378;55.596;13.014;2023-01-31T09:21:07;7.47;;;1.80;;
75766;SDS011;64378;55.596;13.014;2023-01-31T09:23:35;8.35;;;1.60;;
75766;SDS011;64378;55.596;13.014;2023-01-31T09:26:01;6.80;;;1.20;;
75766;SDS011;64378;55.596;13.014;2023-01-31T09:28:27;7.53;;;1.40;;
75766;SDS011;64378;55.596;13.014;2023-01-31T09:30:53;6.90;;;1.13;;
75766;SDS011;64378;55.596;13.014;2023-01-31T09:33:18;8.80;;;1.53;;
75766;SDS011;64378;55.596;13.014;2023-01-31T09:35:55;7.10;;;1.37;;
75766;SDS011;64378;55.596;13.014;2023-01-31T09:38:22;7.90;;;1.70;;
75766;SDS011;64378;55.596;13.014;2023-01-31T09:40:47;7.72;;;1.40;;
75766;SDS011;64378;55.596;13.014;2023-01-31T09:43:13;8.17;;;1.70;;
75766;SDS011;64378;55.596;13.014;2023-01-31T09:45:40;8.25;;;1.40;;
75766;SDS011;64378;55.596;13.014;2023-01-31T09:48:14;8.02;;;1.40;;
75766;SDS011;64378;55.596;13.014;2023-01-31T09:50:45;9.10;;;1.43;;
75766;SDS011;64378;55.596;13.014;2023-01-31T09:53:16;6.53;;;1.30;;
75766;SDS011;64378;55.596;13.014;2023-01-31T09:55:47;6.05;;;1.20;;
75766;SDS011;64378;55.596;13.014;2023-01-31T10:00:56;6.82;;;1.35;;
75766;SDS011;64378;55.596;13.014;2023-01-31T10:08:56;6.35;;;1.20;;
75766;SDS011;64378;55.596;13.014;2023-01-31T10:11:33;6.00;;;1.20;;
75766;SDS011;64378;55.596;13.014;2023-01-31T10:14:28;6.00;;;1.10;;
75766;SDS011;64378;55.596;13.014;2023-01-31T10:17:27;6.85;;;1.10;;
75766;SDS011;64378;55.596;13.014;2023-01-31T10:20:05;6.22;;;1.00;;
75766;SDS011;64378;55.596;13.014;2023-01-31T10:25:39;7.18;;;1.42;;
75766;SDS011;64378;55.596;13.014;2023-01-31T10:28:14;6.27;;;1.30;;
75766;SDS011;64378;55.596;13.014;2023-01-31T10:30:45;6.10;;;1.27;;
75766;SDS011;64378;55.596;13.014;2023-01-31T10:35:53;6.40;;;1.20;;
75766;SDS011;64378;55.596;13.014;2023-01-31T10:38:33;6.70;;;1.30;;
75766;SDS011;64378;55.596;13.014;2023-01-31T10:41:16;6.03;;;1.10;;
75766;SDS011;64378;55.596;13.014;2023-01-31T10:43:51;6.53;;;1.25;;
75766;SDS011;64378;55.596;13.014;2023-01-31T10:46:27;7.70;;;1.20;;
75766;SDS011;64378;55.596;13.014;2023-01-31T10:48:52;7.13;;;1.30;;
75766;SDS011;64378;55.596;13.014;2023-01-31T10:53:52;6.53;;;1.30;;
75766;SDS011;64378;55.596;13.014;2023-01-31T10:56:34;6.83;;;1.40;;
75766;SDS011;64378;55.596;13.014;2023-01-31T10:59:21;5.10;;;1.30;;
75766;SDS011;64378;55.596;13.014;2023-01-31T11:01:50;7.13;;;0.82;;
75766;SDS011;64378;55.596;13.014;2023-01-31T11:04:21;6.83;;;1.20;;
75766;SDS011;64378;55.596;13.014;2023-01-31T11:06:59;7.18;;;1.30;;
75766;SDS011;64378;55.596;13.014;2023-01-31T11:09:27;5.93;;;1.02;;
75766;SDS011;64378;55.596;13.014;2023-01-31T11:12:00;5.67;;;1.23;;
75766;SDS011;64378;55.596;13.014;2023-01-31T11:14:27;5.38;;;1.10;;
75766;SDS011;64378;55.596;13.014;2023-01-31T11:16:56;6.33;;;1.03;;
75766;SDS011;64378;55.596;13.014;2023-01-31T11:19:37;5.97;;;1.20;;
75766;SDS011;64378;55.596;13.014;2023-01-31T11:22:05;6.18;;;1.10;;
75766;SDS011;64378;55.596;13.014;2023-01-31T11:24:32;6.10;;;1.13;;
75766;SDS011;64378;55.596;13.014;2023-01-31T11:27:02;5.00;;;0.80;;
75766;SDS011;64378;55.596;13.014;2023-01-31T11:29:32;5.45;;;0.90;;
75766;SDS011;64378;55.596;13.014;2023-01-31T11:32:02;6.72;;;1.17;;
75766;SDS011;64378;55.596;13.014;2023-01-31T11:34:44;6.10;;;0.85;;
75766;SDS011;64378;55.596;13.014;2023-01-31T11:37:19;5.80;;;1.00;;
75766;SDS011;64378;55.596;13.014;2023-01-31T11:40:31;5.83;;;1.00;;
75766;SDS011;64378;55.596;13.014;2023-01-31T11:42:52;6.30;;;1.00;;
75766;SDS011;64378;55.596;13.014;2023-01-31T11:45:24;7.43;;;1.20;;
75766;SDS011;64378;55.596;13.014;2023-01-31T11:47:52;5.80;;;1.00;;
75766;SDS011;64378;55.596;13.014;2023-01-31T11:50:24;5.80;;;1.13;;
75766;SDS011;64378;55.596;13.014;2023-01-31T11:52:57;5.22;;;1.00;;
75766;SDS011;64378;55.596;13.014;2023-01-31T11:55:27;7.43;;;1.08;;
75766;SDS011;64378;55.596;13.014;2023-01-31T11:58:01;5.82;;;1.23;;
75766;SDS011;64378;55.596;13.014;2023-01-31T12:00:32;5.43;;;0.90;;
75766;SDS011;64378;55.596;13.014;2023-01-31T12:03:02;6.13;;;1.23;;
75766;SDS011;64378;55.596;13.014;2023-01-31T12:05:42;5.37;;;1.00;;
75766;SDS011;64378;55.596;13.014;2023-01-31T12:08:55;6.47;;;1.10;;
75766;SDS011;64378;55.596;13.014;2023-01-31T12:13:50;5.83;;;1.13;;
75766;SDS011;64378;55.596;13.014;2023-01-31T12:16:18;6.63;;;1.25;;
75766;SDS011;64378;55.596;13.014;2023-01-31T12:21:37;5.28;;;1.00;;
75766;SDS011;64378;55.596;13.014;2023-01-31T12:33:40;5.82;;;1.15;;
75766;SDS011;64378;55.596;13.014;2023-01-31T12:41:58;5.47;;;1.10;;
75766;SDS011;64378;55.596;13.014;2023-01-31T12:44:41;7.10;;;1.40;;
75766;SDS011;64378;55.596;13.014;2023-01-31T13:03:16;7.13;;;1.50;;
75766;SDS011;64378;55.596;13.014;2023-01-31T13:06:14;8.73;;;1.23;;
75766;SDS011;64378;55.596;13.014;2023-01-31T13:09:09;6.85;;;1.55;;
75766;SDS011;64378;55.596;13.014;2023-01-31T13:11:39;6.43;;;1.40;;
75766;SDS011;64378;55.596;13.014;2023-01-31T13:14:15;7.18;;;1.40;;
75766;SDS011;64378;55.596;13.014;2023-01-31T13:16:45;6.80;;;1.13;;
75766;SDS011;64378;55.596;13.014;2023-01-31T13:19:50;6.20;;;1.30;;
75766;SDS011;64378;55.596;13.014;2023-01-31T13:22:33;6.17;;;1.37;;
75766;SDS011;64378;55.596;13.014;2023-01-31T13:25:19;7.25;;;1.58;;
75766;SDS011;64378;55.596;13.014;2023-01-31T13:30:43;6.37;;;1.20;;
75766;SDS011;64378;55.596;13.014;2023-01-31T13:33:20;5.30;;;1.15;;
75766;SDS011;64378;55.596;13.014;2023-01-31T13:36:35;5.93;;;1.48;;
75766;SDS011;64378;55.596;13.014;2023-01-31T13:38:44;6.75;;;1.15;;
75766;SDS011;64378;55.596;13.014;2023-01-31T13:41:13;6.93;;;1.40;;
75766;SDS011;64378;55.596;13.014;2023-01-31T13:43:45;5.93;;;1.20;;
75766;SDS011;64378;55.596;13.014;2023-01-31T13:46:11;5.80;;;1.30;;
75766;SDS011;64378;55.596;13.014;2023-01-31T13:48:47;6.28;;;1.15;;
75766;SDS011;64378;55.596;13.014;2023-01-31T13:56:28;4.87;;;1.10;;
75766;SDS011;64378;55.596;13.014;2023-01-31T13:58:57;5.95;;;1.25;;
75766;SDS011;64378;55.596;13.014;2023-01-31T14:01:25;4.70;;;1.08;;
75766;SDS011;64378;55.596;13.014;2023-01-31T14:07:18;5.15;;;1.20;;
75766;SDS011;64378;55.596;13.014;2023-01-31T14:09:33;7.20;;;1.30;;
75766;SDS011;64378;55.596;13.014;2023-01-31T14:12:45;6.97;;;1.27;;
75766;SDS011;64378;55.596;13.014;2023-01-31T14:14:47;6.38;;;1.60;;
75766;SDS011;64378;55.596;13.014;2023-01-31T14:22:17;5.97;;;1.38;;
75766;SDS011;64378;55.596;13.014;2023-01-31T14:29:57;7.03;;;1.70;;
75766;SDS011;64378;55.596;13.014;2023-01-31T14:40:25;7.65;;;1.52;;
75766;SDS011;64378;55.596;13.014;2023-01-31T14:51:45;6.80;;;1.65;;
75766;SDS011;64378;55.596;13.014;2023-01-31T14:59:42;7.40;;;1.40;;
75766;SDS011;64378;55.596;13.014;2023-01-31T15:07:35;6.60;;;1.50;;
75766;SDS011;64378;55.596;13.014;2023-01-31T15:10:01;6.35;;;1.42;;
75766;SDS011;64378;55.596;13.014;2023-01-31T15:15:18;6.00;;;1.40;;
75766;SDS011;64378;55.596;13.014;2023-01-31T15:17:49;5.18;;;1.20;;
75766;SDS011;64378;55.596;13.014;2023-01-31T15:20:18;5.70;;;1.23;;
75766;SDS011;64378;55.596;13.014;2023-01-31T15:22:48;6.22;;;1.30;;
75766;SDS011;64378;55.596;13.014;2023-01-31T15:25:20;6.43;;;1.17;;
75766;SDS011;64378;55.596;13.014;2023-01-31T15:27:53;9.13;;;1.60;;
75766;SDS011;64378;55.596;13.014;2023-01-31T15:30:20;8.37;;;1.50;;
75766;SDS011;64378;55.596;13.014;2023-01-31T15:33:06;7.20;;;1.45;;
75766;SDS011;64378;55.596;13.014;2023-01-31T15:35:55;8.48;;;1.40;;
75766;SDS011;64378;55.596;13.014;2023-01-31T15:38:28;6.45;;;1.30;;
75766;SDS011;64378;55.596;13.014;2023-01-31T15:43:41;7.45;;;1.45;;
75766;SDS011;64378;55.596;13.014;2023-01-31T15:48:47;7.07;;;1.30;;
75766;SDS011;64378;55.596;13.014;2023-01-31T15:51:13;6.30;;;1.33;;
75766;SDS011;64378;55.596;13.014;2023-01-31T15:53:39;8.87;;;1.33;;
75766;SDS011;64378;55.596;13.014;2023-01-31T15:56:06;8.25;;;1.48;;
75766;SDS011;64378;55.596;13.014;2023-01-31T15:58:38;7.82;;;1.48;;
75766;SDS011;64378;55.596;13.014;2023-01-31T16:01:04;6.50;;;1.30;;
75766;SDS011;64378;55.596;13.014;2023-01-31T16:03:35;6.40;;;1.37;;
75766;SDS011;64378;55.596;13.014;2023-01-31T16:06:06;7.63;;;1.57;;
75766;SDS011;64378;55.596;13.014;2023-01-31T16:08:49;6.83;;;1.50;;
75766;SDS011;64378;55.596;13.014;2023-01-31T16:11:16;7.13;;;1.50;;
75766;SDS011;64378;55.596;13.014;2023-01-31T16:13:42;6.65;;;1.30;;
75766;SDS011;64378;55.596;13.014;2023-01-31T16:16:10;6.73;;;1.33;;
75766;SDS011;64378;55.596;13.014;2023-01-31T16:18:40;8.03;;;1.50;;
75766;SDS011;64378;55.596;13.014;2023-01-31T16:23:56;8.13;;;1.30;;
75766;SDS011;64378;55.596;13.014;2023-01-31T16:29:54;6.55;;;1.25;;
75766;SDS011;64378;55.596;13.014;2023-01-31T16:34:50;9.00;;;1.67;;
75766;SDS011;64378;55.596;13.014;2023-01-31T16:37:20;7.50;;;1.63;;
75766;SDS011;64378;55.596;13.014;2023-01-31T16:42:45;11.83;;;1.80;;
75766;SDS011;64378;55.596;13.014;2023-01-31T16:47:52;9.32;;;1.50;;
75766;SDS011;64378;55.596;13.014;2023-01-31T16:53:04;9.52;;;1.50;;
75766;SDS011;64378;55.596;13.014;2023-01-31T16:55:41;8.70;;;1.23;;
75766;SDS011;64378;55.596;13.014;2023-01-31T16:58:07;6.63;;;1.27;;
75766;SDS011;64378;55.596;13.014;2023-01-31T17:00:35;10.38;;;1.60;;
75766;SDS011;64378;55.596;13.014;2023-01-31T17:03:01;9.27;;;1.30;;
75766;SDS011;64378;55.596;13.014;2023-01-31T17:05:39;8.35;;;1.10;;
75766;SDS011;64378;55.596;13.014;2023-01-31T17:08:15;8.87;;;1.43;;
75766;SDS011;64378;55.596;13.014;2023-01-31T17:10:43;9.85;;;1.98;;
75766;SDS011;64378;55.596;13.014;2023-01-31T17:13:14;12.85;;;3.05;;
75766;SDS011;64378;55.596;13.014;2023-01-31T17:15:45;11.00;;;3.55;;
75766;SDS011;64378;55.596;13.014;2023-01-31T17:18:11;9.75;;;3.75;;
75766;SDS011;64378;55.596;13.014;2023-01-31T17:20:38;11.57;;;3.80;;
75766;SDS011;64378;55.596;13.014;2023-01-31T17:23:07;11.87;;;3.53;;
75766;SDS011;64378;55.596;13.014;2023-01-31T17:25:34;11.88;;;4.03;;
75766;SDS011;64378;55.596;13.014;2023-01-31T17:28:00;13.43;;;3.90;;
75766;SDS011;64378;55.596;13.014;2023-01-31T17:30:26;13.60;;;3.93;;
75766;SDS011;64378;55.596;13.014;2023-01-31T17:32:54;12.70;;;4.60;;